Time;durP1;ratioP1;P1;durP2;ratioP2;P2;SDS_P1;SDS_P2;PMS_P1;PMS_P2;Temp;Humidity;BMP_temperature;BMP_pressure;BME280_temperature;BME280_humidity;BME280_pressure;Samples;Min_cycle;Max_cycle;Signal;HPM_P1;HPM_P2
2022/05/21 00:00:29;;;;;;;8.55;4.20;;;10.80;99.90;;;;;;5029753;28;20401;-77
2022/05/21 00:02:55;;;;;;;11.82;4.40;;;10.80;99.90;;;;;;5024461;28;20404;-77
2022/05/21 00:05:24;;;;;;;10.95;4.40;;;10.70;99.90;;;;;;5024966;28;20094;-77
2022/05/21 00:07:50;;;;;;;7.13;4.45;;;10.70;99.90;;;;;;5026801;28;20041;-76
2022/05/21 00:10:17;;;;;;;9.18;4.75;;;10.70;99.90;;;;;;5023324;28;20045;-77
2022/05/21 00:12:44;;;;;;;8.50;4.10;;;10.70;99.90;;;;;;5023306;28;20056;-77
2022/05/21 00:15:13;;;;;;;10.02;4.85;;;10.70;99.90;;;;;;5026353;28;20042;-76
2022/05/21 00:17:39;;;;;;;10.88;4.68;;;10.70;99.90;;;;;;5029202;28;20576;-76
2022/05/21 00:20:07;;;;;;;14.05;5.50;;;10.70;99.90;;;;;;5060522;28;20136;-77
2022/05/21 00:22:33;;;;;;;12.05;5.35;;;10.70;99.90;;;;;;5023275;28;20046;-77
2022/05/21 00:24:59;;;;;;;12.27;6.43;;;10.70;99.90;;;;;;5021460;28;20053;-77
2022/05/21 00:27:24;;;;;;;11.43;6.18;;;10.70;99.90;;;;;;5028625;28;20511;-77
2022/05/21 00:29:50;;;;;;;13.48;6.38;;;10.70;99.90;;;;;;5028980;28;20155;-75
2022/05/21 00:32:15;;;;;;;14.05;6.35;;;10.70;99.90;;;;;;5022695;28;20507;-77
2022/05/21 00:34:41;;;;;;;14.77;7.88;;;11.00;99.90;;;;;;5055753;28;20060;-77
2022/05/21 00:37:07;;;;;;;16.23;8.50;;;10.70;99.90;;;;;;5060255;28;20041;-77
2022/05/21 00:39:32;;;;;;;13.45;7.72;;;10.80;99.90;;;;;;5055054;28;20056;-76
2022/05/21 00:42:06;;;;;;;16.85;9.25;;;10.80;99.90;;;;;;5024436;28;20049;-77
2022/05/21 00:44:32;;;;;;;16.60;8.88;;;10.80;99.90;;;;;;5029109;28;20060;-76
2022/05/21 00:46:57;;;;;;;18.45;9.38;;;10.80;99.90;;;;;;5021102;28;20045;-76
2022/05/21 00:49:31;;;;;;;16.05;9.90;;;10.80;99.90;;;;;;5027358;28;20082;-77
2022/05/21 00:52:07;;;;;;;17.95;9.65;;;10.80;99.90;;;;;;5025515;28;20508;-77
2022/05/21 00:54:37;;;;;;;22.98;10.95;;;10.80;99.90;;;;;;5025244;28;20050;-77
2022/05/21 00:57:09;;;;;;;23.95;11.32;;;10.80;99.90;;;;;;5022360;28;20893;-77
2022/05/21 00:59:51;;;;;;;24.38;11.60;;;10.80;99.90;;;;;;5025595;28;20822;-77
2022/05/21 01:02:39;;;;;;;21.52;11.13;;;10.80;99.90;;;;;;5024364;28;20037;-77
2022/05/21 01:05:09;;;;;;;17.88;10.00;;;10.80;99.90;;;;;;5027623;28;20052;-77
2022/05/21 01:07:40;;;;;;;20.45;11.52;;;10.90;99.90;;;;;;5018464;28;20081;-77
2022/05/21 01:10:08;;;;;;;23.30;11.85;;;10.90;99.90;;;;;;5029249;28;20606;-77
2022/05/21 01:12:38;;;;;;;17.83;10.63;;;10.90;99.90;;;;;;5028136;28;20082;-77
2022/05/21 01:15:09;;;;;;;17.17;10.05;;;10.90;99.90;;;;;;5025925;28;20408;-77
2022/05/21 01:17:34;;;;;;;19.65;12.18;;;11.00;99.90;;;;;;5028811;28;20405;-77
2022/05/21 01:20:07;;;;;;;21.63;12.30;;;11.00;99.90;;;;;;5018117;28;20037;-78
2022/05/21 01:22:40;;;;;;;19.92;12.95;;;11.00;99.90;;;;;;5026190;28;20143;-77
2022/05/21 01:25:06;;;;;;;22.40;11.77;;;11.00;99.90;;;;;;5022069;28;20179;-77
2022/05/21 01:27:32;;;;;;;19.45;12.38;;;11.00;99.90;;;;;;5024166;28;20048;-77
2022/05/21 01:30:02;;;;;;;22.20;14.02;;;11.10;99.90;;;;;;5027556;28;20052;-77
2022/05/21 01:32:28;;;;;;;23.77;14.57;;;11.10;99.90;;;;;;5024120;28;20592;-77
2022/05/21 01:34:54;;;;;;;23.80;13.82;;;11.10;99.90;;;;;;5025084;28;20187;-77
2022/05/21 01:37:20;;;;;;;25.27;16.58;;;11.30;99.90;;;;;;5020030;28;20052;-77
2022/05/21 01:39:45;;;;;;;25.50;16.35;;;11.20;99.90;;;;;;5029668;28;20053;-77
2022/05/21 01:42:11;;;;;;;24.90;16.70;;;11.20;99.90;;;;;;5027937;28;20053;-77
2022/05/21 01:44:39;;;;;;;28.83;19.55;;;11.20;99.90;;;;;;5034986;28;20396;-77
2022/05/21 01:47:13;;;;;;;32.25;19.05;;;11.20;99.90;;;;;;5029481;28;20501;-76
2022/05/21 01:49:41;;;;;;;32.30;20.02;;;11.30;99.90;;;;;;5018910;28;20041;-77
2022/05/21 01:52:08;;;;;;;37.30;21.77;;;11.30;99.90;;;;;;5061989;28;20041;-78
2022/05/21 01:54:34;;;;;;;33.67;20.27;;;11.30;99.90;;;;;;5025109;28;20057;-77
2022/05/21 01:57:00;;;;;;;33.50;22.00;;;11.40;99.90;;;;;;5029086;28;20163;-76
2022/05/21 01:59:26;;;;;;;37.72;23.42;;;11.40;99.90;;;;;;5029320;28;20124;-77
2022/05/21 02:01:52;;;;;;;36.00;22.25;;;11.40;99.90;;;;;;5018530;28;20048;-77
2022/05/21 02:04:18;;;;;;;33.40;21.58;;;11.50;99.90;;;;;;5026110;28;20052;-76
2022/05/21 02:06:44;;;;;;;38.55;22.98;;;11.50;99.90;;;;;;5026158;28;20077;-76
2022/05/21 02:09:11;;;;;;;33.90;23.25;;;11.50;99.90;;;;;;5027049;28;20072;-77
2022/05/21 02:11:37;;;;;;;35.60;23.50;;;11.50;99.90;;;;;;5029391;28;20038;-77
2022/05/21 02:14:04;;;;;;;37.85;25.52;;;11.60;99.90;;;;;;5022858;28;20144;-77
2022/05/21 02:16:30;;;;;;;39.53;24.75;;;11.60;99.90;;;;;;5028885;28;20046;-76
2022/05/21 02:19:07;;;;;;;33.85;23.23;;;11.60;99.90;;;;;;5029485;28;20049;-77
2022/05/21 02:21:36;;;;;;;41.58;25.25;;;11.70;99.90;;;;;;5022429;28;20041;-76
2022/05/21 02:24:04;;;;;;;42.72;26.02;;;11.70;99.90;;;;;;5016741;28;20096;-76
2022/05/21 02:26:33;;;;;;;38.70;25.45;;;11.70;99.90;;;;;;5033561;28;20052;-76
2022/05/21 02:28:59;;;;;;;42.70;25.73;;;11.70;99.90;;;;;;5030163;28;20115;-75
2022/05/21 02:31:26;;;;;;;44.75;26.40;;;11.80;99.90;;;;;;5032634;28;20069;-76
2022/05/21 02:33:53;;;;;;;39.13;24.40;;;11.80;99.90;;;;;;5027433;28;20199;-76
2022/05/21 02:39:25;;;;;;;41.28;25.90;;;11.80;99.90;;;;;;5046702;28;20399;-76
2022/05/21 02:41:49;;;;;;;42.13;24.42;;;11.90;99.90;;;;;;5032350;28;20053;-76
2022/05/21 02:44:14;;;;;;;36.75;23.77;;;11.90;99.90;;;;;;5046602;28;20151;-75
2022/05/21 02:46:40;;;;;;;31.80;22.15;;;11.90;99.90;;;;;;5061507;28;20496;-75
2022/05/21 02:49:05;;;;;;;42.70;23.63;;;12.00;99.90;;;;;;5033692;28;20045;-76
2022/05/21 02:51:31;;;;;;;39.00;23.63;;;11.90;99.90;;;;;;5030263;28;20192;-76
2022/05/21 02:53:56;;;;;;;38.90;22.30;;;12.00;99.90;;;;;;5062263;28;20483;-76
2022/05/21 02:56:22;;;;;;;31.80;21.05;;;12.00;99.90;;;;;;5064288;28;20146;-75
2022/05/21 02:58:48;;;;;;;35.22;20.60;;;12.00;99.90;;;;;;5034285;28;20053;-76
2022/05/21 03:01:14;;;;;;;36.20;20.67;;;12.00;99.90;;;;;;5067148;28;20072;-76
2022/05/21 03:03:40;;;;;;;42.53;21.45;;;12.00;99.90;;;;;;5027636;28;20119;-76
2022/05/21 03:06:06;;;;;;;33.88;21.05;;;12.00;99.90;;;;;;5033208;28;20069;-76
2022/05/21 03:11:16;;;;;;;37.80;19.95;;;12.00;99.90;;;;;;5033610;28;20041;-76
2022/05/21 03:13:41;;;;;;;33.72;19.17;;;12.10;99.90;;;;;;5034137;28;20045;-75
2022/05/21 03:16:07;;;;;;;33.90;20.40;;;12.10;99.90;;;;;;5035202;28;20037;-76
2022/05/21 03:18:35;;;;;;;31.30;18.52;;;12.10;99.90;;;;;;5034039;28;20072;-76
2022/05/21 03:21:01;;;;;;;30.48;17.92;;;12.20;99.90;;;;;;5034151;28;20049;-76
2022/05/21 03:23:26;;;;;;;30.58;18.25;;;12.20;99.90;;;;;;5032261;28;20099;-75
2022/05/21 03:25:52;;;;;;;32.40;17.30;;;12.20;99.90;;;;;;5033801;28;20056;-76
2022/05/21 03:28:21;;;;;;;33.35;17.73;;;12.20;99.90;;;;;;5026175;28;20060;-76
2022/05/21 03:30:47;;;;;;;37.95;16.90;;;12.20;99.90;;;;;;5033122;28;20393;-76
2022/05/21 03:33:13;;;;;;;28.30;17.48;;;12.20;99.90;;;;;;5039747;28;20064;-75
2022/05/21 03:35:41;;;;;;;33.53;17.20;;;12.30;99.90;;;;;;5032014;28;20126;-76
2022/05/21 03:38:08;;;;;;;28.85;15.38;;;12.30;99.90;;;;;;5030919;28;20099;-77
2022/05/21 03:40:35;;;;;;;32.30;16.52;;;12.30;99.90;;;;;;5023202;28;20374;-76
2022/05/21 03:43:01;;;;;;;28.10;15.88;;;12.30;99.90;;;;;;5028590;28;20103;-77
2022/05/21 03:45:27;;;;;;;32.63;15.98;;;12.30;99.90;;;;;;5022285;28;20045;-77
2022/05/21 03:47:53;;;;;;;23.83;13.70;;;12.30;99.90;;;;;;5028423;28;20481;-77
2022/05/21 03:50:22;;;;;;;29.33;14.90;;;12.40;99.90;;;;;;5026193;28;20033;-77
2022/05/21 03:52:48;;;;;;;27.55;13.52;;;12.40;99.90;;;;;;5032862;28;20065;-77
2022/05/21 03:55:13;;;;;;;33.90;14.20;;;12.40;99.90;;;;;;5031249;28;20576;-77
2022/05/21 03:57:39;;;;;;;28.20;12.90;;;12.40;99.90;;;;;;5037458;28;20038;-78
2022/05/21 04:00:08;;;;;;;33.13;12.20;;;12.40;99.90;;;;;;5032342;28;20041;-76
2022/05/21 04:02:36;;;;;;;25.27;12.57;;;12.50;99.90;;;;;;5030056;28;20045;-77
2022/05/21 04:05:06;;;;;;;27.80;11.88;;;12.50;99.90;;;;;;5020651;28;20050;-77
2022/05/21 04:07:37;;;;;;;25.67;11.13;;;12.50;99.90;;;;;;5030311;28;20084;-77
2022/05/21 04:10:03;;;;;;;26.30;10.52;;;12.50;99.90;;;;;;5046596;28;20049;-77
2022/05/21 04:12:29;;;;;;;25.85;9.55;;;12.50;99.90;;;;;;5032687;28;20390;-77
2022/05/21 04:14:55;;;;;;;29.20;7.60;;;12.50;99.90;;;;;;5023383;28;20046;-77
2022/05/21 04:17:20;;;;;;;18.27;8.02;;;12.60;99.90;;;;;;5031231;28;20046;-78
2022/05/21 04:19:46;;;;;;;24.75;7.10;;;12.60;99.90;;;;;;5028470;28;20685;-78
2022/05/21 04:22:11;;;;;;;17.85;7.13;;;12.60;99.90;;;;;;5025977;28;20413;-77
2022/05/21 04:24:38;;;;;;;17.10;7.03;;;12.60;99.90;;;;;;5017155;28;20124;-77
2022/05/21 04:27:07;;;;;;;21.15;6.05;;;12.60;99.90;;;;;;5029036;28;20037;-75
2022/05/21 04:29:34;;;;;;;19.38;6.60;;;12.60;99.90;;;;;;5040435;28;20053;-77
2022/05/21 04:31:59;;;;;;;20.88;5.80;;;12.70;99.90;;;;;;5028087;28;20128;-77
2022/05/21 04:34:25;;;;;;;18.80;6.22;;;12.70;99.90;;;;;;5022636;28;20140;-77
2022/05/21 04:36:51;;;;;;;24.70;6.75;;;12.70;99.90;;;;;;5026534;28;20068;-77
2022/05/21 04:39:16;;;;;;;17.40;5.75;;;12.70;99.90;;;;;;5058625;28;20037;-77
2022/05/21 04:41:42;;;;;;;21.83;6.03;;;12.70;99.90;;;;;;5023808;28;20038;-77
2022/05/21 04:44:10;;;;;;;17.10;5.15;;;12.70;99.90;;;;;;5027999;28;20045;-77
2022/05/21 04:46:37;;;;;;;16.88;5.00;;;12.80;99.90;;;;;;5023468;28;20037;-77
2022/05/21 04:49:03;;;;;;;15.88;5.03;;;12.80;99.90;;;;;;5024983;28;20045;-77
2022/05/21 04:51:29;;;;;;;16.48;3.95;;;12.80;99.90;;;;;;5055368;28;20124;-76
2022/05/21 04:53:54;;;;;;;14.52;4.20;;;12.80;99.90;;;;;;5025191;28;20413;-77
2022/05/21 04:56:23;;;;;;;13.63;3.92;;;12.70;99.90;;;;;;5021156;28;20045;-77
2022/05/21 04:58:49;;;;;;;15.32;4.10;;;12.70;99.90;;;;;;5027268;28;20564;-78
2022/05/21 05:01:14;;;;;;;19.05;4.40;;;12.70;99.90;;;;;;5028515;28;20037;-78
2022/05/21 05:03:43;;;;;;;18.13;4.10;;;12.70;99.90;;;;;;5028966;28;20096;-78
2022/05/21 05:06:08;;;;;;;19.30;4.30;;;12.70;99.90;;;;;;5026821;28;20404;-78
2022/05/21 05:08:35;;;;;;;14.50;4.22;;;12.70;99.90;;;;;;5027470;28;20079;-78
2022/05/21 05:11:00;;;;;;;19.75;4.45;;;12.60;99.90;;;;;;5029256;28;20782;-77
2022/05/21 05:13:26;;;;;;;19.75;5.35;;;12.70;99.90;;;;;;5028841;28;20060;-77
2022/05/21 05:15:53;;;;;;;18.52;3.85;;;12.70;99.90;;;;;;5025888;28;20042;-77
2022/05/21 05:18:27;;;;;;;17.33;4.20;;;12.80;99.90;;;;;;5018375;28;20215;-76
2022/05/21 05:20:53;;;;;;;13.25;3.35;;;12.80;99.90;;;;;;5029849;28;20037;-76
2022/05/21 05:23:19;;;;;;;18.52;4.32;;;12.80;99.90;;;;;;5021514;28;20049;-76
2022/05/21 05:25:45;;;;;;;14.65;3.90;;;12.90;99.90;;;;;;5011982;28;20042;-76
2022/05/21 05:28:23;;;;;;;11.93;3.55;;;13.00;99.90;;;;;;5026534;28;20049;-76
2022/05/21 05:30:49;;;;;;;13.27;3.20;;;13.10;99.90;;;;;;5051341;28;20049;-74
2022/05/21 05:33:16;;;;;;;15.90;3.75;;;13.10;99.90;;;;;;5020325;28;20070;-78
2022/05/21 05:35:41;;;;;;;12.57;3.45;;;13.10;99.90;;;;;;5025818;28;20183;-78
2022/05/21 05:38:12;;;;;;;12.85;3.35;;;13.10;99.90;;;;;;5024774;28;20132;-76
2022/05/21 05:40:45;;;;;;;12.98;3.40;;;13.20;99.90;;;;;;5024776;28;20060;-75
2022/05/21 05:43:12;;;;;;;14.50;3.05;;;13.20;99.90;;;;;;5023180;28;20041;-78
2022/05/21 05:45:37;;;;;;;12.27;3.42;;;13.20;99.90;;;;;;5035568;28;20049;-78
2022/05/21 05:48:03;;;;;;;14.07;3.28;;;13.20;99.90;;;;;;5024958;28;20098;-78
2022/05/21 05:50:29;;;;;;;13.98;3.97;;;13.20;99.90;;;;;;5027760;28;20485;-78
2022/05/21 05:53:00;;;;;;;16.50;3.80;;;13.20;99.90;;;;;;5025826;28;20041;-78
2022/05/21 05:55:26;;;;;;;12.52;2.80;;;13.30;99.90;;;;;;5053096;28;20041;-78
2022/05/21 05:57:52;;;;;;;15.90;3.83;;;13.30;99.90;;;;;;5021638;28;20055;-78
2022/05/21 06:00:19;;;;;;;8.75;2.80;;;13.30;99.90;;;;;;5028438;28;20175;-78
2022/05/21 06:03:01;;;;;;;17.50;3.50;;;13.40;99.90;;;;;;5022499;28;20046;-77
2022/05/21 06:05:30;;;;;;;11.73;2.90;;;13.40;99.90;;;;;;5023697;28;20045;-78
2022/05/21 06:08:02;;;;;;;14.32;3.00;;;13.50;99.90;;;;;;5034232;28;20054;-78
2022/05/21 06:10:30;;;;;;;11.13;2.70;;;13.50;99.90;;;;;;5019754;28;20124;-78
2022/05/21 06:12:59;;;;;;;18.02;3.75;;;13.50;99.90;;;;;;5019974;28;20080;-78
2022/05/21 06:15:25;;;;;;;13.75;2.80;;;13.60;99.90;;;;;;5021551;28;20516;-78
2022/05/21 06:17:52;;;;;;;11.63;3.10;;;13.60;99.90;;;;;;5025433;28;20585;-79
2022/05/21 06:20:20;;;;;;;10.70;2.97;;;13.70;99.90;;;;;;5026465;28;20049;-78
2022/05/21 06:22:47;;;;;;;10.35;3.13;;;13.70;99.90;;;;;;5025839;28;20038;-78
2022/05/21 06:25:19;;;;;;;11.57;3.05;;;14.00;99.90;;;;;;5022846;28;20068;-79
2022/05/21 06:27:46;;;;;;;14.88;3.08;;;13.80;99.90;;;;;;5026790;28;20417;-78
2022/05/21 06:30:13;;;;;;;7.63;2.70;;;13.80;99.90;;;;;;5024760;28;20069;-78
2022/05/21 06:32:41;;;;;;;10.75;3.05;;;14.00;99.90;;;;;;5021302;28;20045;-78
2022/05/21 06:35:09;;;;;;;12.63;2.85;;;13.90;99.90;;;;;;5020175;28;20508;-78
2022/05/21 06:37:36;;;;;;;12.48;2.78;;;13.90;99.90;;;;;;5020130;28;20056;-81
2022/05/21 06:40:02;;;;;;;17.35;3.50;;;14.00;99.90;;;;;;5026067;28;20176;-82
2022/05/21 06:42:28;;;;;;;11.75;3.17;;;14.00;99.90;;;;;;5022329;28;20059;-81
2022/05/21 06:44:54;;;;;;;16.50;3.75;;;14.10;99.90;;;;;;5024615;28;20439;-81
2022/05/21 06:47:19;;;;;;;12.73;3.30;;;14.10;99.90;;;;;;5020573;28;20136;-82
2022/05/21 06:49:45;;;;;;;9.23;2.63;;;14.10;99.90;;;;;;5021507;28;20135;-82
2022/05/21 06:52:11;;;;;;;12.85;2.80;;;14.10;99.90;;;;;;5026276;28;20115;-81
2022/05/21 06:54:36;;;;;;;13.35;2.95;;;14.10;99.90;;;;;;5021412;28;20041;-81
2022/05/21 06:57:02;;;;;;;15.63;2.95;;;14.20;99.90;;;;;;5026633;28;20295;-81
2022/05/21 06:59:28;;;;;;;16.33;3.17;;;14.30;99.90;;;;;;5024763;28;20060;-81
2022/05/21 07:01:54;;;;;;;16.00;3.67;;;14.30;99.90;;;;;;5020449;28;20080;-81
2022/05/21 07:07:32;;;;;;;14.77;3.15;;;14.40;99.90;;;;;;5040498;28;20085;-81
2022/05/21 07:09:49;;;;;;;12.63;3.00;;;14.50;99.90;;;;;;5020866;28;20057;-82
2022/05/21 07:12:15;;;;;;;11.68;2.40;;;14.60;99.90;;;;;;5057480;28;20311;-81
2022/05/21 07:14:40;;;;;;;9.30;2.55;;;14.80;99.90;;;;;;5026748;28;20042;-82
2022/05/21 07:17:06;;;;;;;10.45;2.38;;;14.90;99.90;;;;;;5024487;28;20073;-80
2022/05/21 07:19:34;;;;;;;14.05;2.45;;;15.20;99.90;;;;;;5026250;28;20061;-81
2022/05/21 07:22:03;;;;;;;9.38;2.75;;;15.30;99.90;;;;;;5030437;28;20042;-81
2022/05/21 07:24:28;;;;;;;9.82;2.55;;;15.30;99.90;;;;;;5022510;28;20064;-80
2022/05/21 07:26:54;;;;;;;10.63;2.72;;;15.30;99.90;;;;;;5028339;28;20540;-81
2022/05/21 07:29:19;;;;;;;9.35;2.15;;;15.40;99.90;;;;;;5025354;28;20435;-81
2022/05/21 07:31:45;;;;;;;11.88;2.60;;;15.40;99.90;;;;;;5039479;28;20048;-81
2022/05/21 07:34:10;;;;;;;14.32;3.00;;;15.30;99.90;;;;;;5025748;28;20512;-83
2022/05/21 07:36:36;;;;;;;9.25;2.88;;;15.30;99.90;;;;;;5013211;28;20153;-83
2022/05/21 07:39:02;;;;;;;9.40;2.33;;;15.40;99.90;;;;;;5020976;28;20057;-83
2022/05/21 07:41:27;;;;;;;11.93;2.67;;;15.50;99.90;;;;;;5027188;28;20041;-83
2022/05/21 07:43:53;;;;;;;13.73;2.42;;;15.50;99.90;;;;;;5028974;28;20053;-84
2022/05/21 07:46:18;;;;;;;12.93;2.10;;;15.60;99.90;;;;;;5030313;28;20037;-84
2022/05/21 07:48:44;;;;;;;11.43;2.40;;;15.60;99.90;;;;;;5030633;28;20044;-84
2022/05/21 07:51:12;;;;;;;13.77;2.70;;;15.40;99.90;;;;;;5061593;28;20550;-84
2022/05/21 07:53:42;;;;;;;11.77;2.78;;;15.30;99.90;;;;;;5035222;28;20041;-84
2022/05/21 07:56:11;;;;;;;11.48;2.35;;;15.40;99.90;;;;;;5050603;28;20129;-83
2022/05/21 07:58:37;;;;;;;8.73;2.38;;;15.50;99.90;;;;;;5027389;28;20061;-86
2022/05/21 08:01:03;;;;;;;13.68;2.90;;;15.70;99.90;;;;;;5029919;28;20053;-86
2022/05/21 08:03:29;;;;;;;14.27;3.42;;;15.80;99.90;;;;;;5023774;28;20515;-84
2022/05/21 08:05:55;;;;;;;9.43;1.85;;;16.00;99.90;;;;;;5026585;28;20511;-80
2022/05/21 08:08:22;;;;;;;9.98;2.08;;;16.10;99.90;;;;;;5028418;28;20088;-81
2022/05/21 08:10:47;;;;;;;10.23;2.13;;;16.20;99.90;;;;;;5030440;28;20049;-84
2022/05/21 08:13:15;;;;;;;9.60;1.90;;;16.30;99.90;;;;;;5025194;28;20052;-84
2022/05/21 08:15:41;;;;;;;9.25;2.50;;;16.40;99.90;;;;;;5029502;28;20072;-86
2022/05/21 08:18:07;;;;;;;7.75;1.98;;;16.40;99.90;;;;;;5026391;28;20128;-82
2022/05/21 08:20:37;;;;;;;8.90;2.20;;;16.30;99.90;;;;;;5024969;28;20535;-81
2022/05/21 08:28:34;;;;;;;;;;;16.10;99.90;;;;;;5024919;28;20053;-82
2022/05/21 08:31:01;;;;;;;10.75;2.20;;;16.00;99.90;;;;;;5063415;28;19921;-80
2022/05/21 08:33:28;;;;;;;10.32;2.50;;;16.00;99.90;;;;;;5027187;28;20034;-77
2022/05/21 08:35:53;;;;;;;10.20;2.20;;;16.20;99.90;;;;;;5053826;28;20053;-79
2022/05/21 08:38:19;;;;;;;12.80;2.13;;;16.30;99.90;;;;;;5021372;28;20042;-81
2022/05/21 08:41:03;;;;;;;9.30;2.88;;;16.40;99.90;;;;;;5025101;28;20042;-83
2022/05/21 08:43:47;;;;;;;10.32;2.60;;;16.30;99.90;;;;;;5029043;28;20059;-82
2022/05/21 08:46:27;;;;;;;10.20;2.67;;;16.40;99.90;;;;;;5029968;28;20128;-84
2022/05/21 08:49:06;;;;;;;7.00;1.80;;;16.50;99.90;;;;;;5029480;28;20041;-88
2022/05/21 08:51:40;;;;;;;10.23;1.92;;;16.60;99.90;;;;;;5026969;28;20102;-83
2022/05/21 08:54:06;;;;;;;7.70;2.10;;;16.80;99.90;;;;;;5027082;28;20499;-84
2022/05/21 08:56:32;;;;;;;12.15;2.10;;;17.00;99.90;;;;;;5023781;28;20075;-84
2022/05/21 08:59:03;;;;;;;8.45;1.85;;;17.00;99.90;;;;;;5029037;28;20460;-85
2022/05/21 09:01:32;;;;;;;9.07;2.25;;;17.10;99.90;;;;;;5024523;28;20037;-82
2022/05/21 09:03:57;;;;;;;9.32;1.60;;;17.30;99.90;;;;;;5024456;28;20049;-82
2022/05/21 09:07:04;;;;;;;11.30;1.80;;;17.30;99.90;;;;;;5028063;28;20053;-84
2022/05/21 09:09:49;;;;;;;9.50;1.80;;;17.30;99.90;;;;;;4991870;28;20054;-83
2022/05/21 09:12:28;;;;;;;;;;;17.20;99.90;;;;;;5024624;28;20042;-85
2022/05/21 09:14:57;;;;;;;10.02;1.73;;;17.00;99.90;;;;;;5027064;28;19967;-84
2022/05/21 09:17:25;;;;;;;11.73;2.65;;;17.00;99.90;;;;;;5019770;28;20532;-83
2022/05/21 09:19:57;;;;;;;9.65;2.00;;;17.10;99.90;;;;;;5027683;28;20103;-84
2022/05/21 09:22:24;;;;;;;11.90;1.73;;;17.20;99.90;;;;;;5024284;28;20075;-84
2022/05/21 09:24:58;;;;;;;10.35;1.98;;;17.20;99.90;;;;;;5020446;28;20057;-84
2022/05/21 09:27:42;;;;;;;9.50;1.90;;;17.40;99.90;;;;;;5048980;28;20107;-84
2022/05/21 09:30:11;;;;;;;7.57;1.77;;;17.60;99.90;;;;;;5028560;28;20033;-84
2022/05/21 09:32:39;;;;;;;14.05;2.35;;;17.70;99.90;;;;;;5023649;28;20054;-84
2022/05/21 09:35:07;;;;;;;10.10;2.15;;;17.80;99.90;;;;;;5026101;28;20561;-85
2022/05/21 09:37:33;;;;;;;8.10;1.70;;;17.80;99.90;;;;;;5027457;28;20472;-82
2022/05/21 09:40:00;;;;;;;10.05;1.60;;;17.70;99.90;;;;;;5032252;28;20041;-83
2022/05/21 09:45:27;;;;;;;10.50;1.88;;;17.50;99.90;;;;;;5022366;28;20053;-82
2022/05/21 09:48:04;;;;;;;13.38;1.63;;;17.70;99.90;;;;;;5029384;28;20046;-81
2022/05/21 09:50:41;;;;;;;7.00;1.30;;;17.70;99.90;;;;;;5034039;28;20060;-81
2022/05/21 09:53:32;;;;;;;5.40;1.40;;;17.60;99.90;;;;;;5023659;28;20600;-82
2022/05/21 09:56:19;;;;;;;5.43;1.15;;;17.50;99.90;;;;;;5025430;28;20568;-82
2022/05/21 09:58:47;;;;;;;8.98;1.40;;;17.40;99.90;;;;;;5040689;28;20643;-82
2022/05/21 10:01:15;;;;;;;7.70;1.73;;;17.30;99.90;;;;;;5028647;28;20188;-78
2022/05/21 10:03:49;;;;;;;8.85;1.70;;;17.20;99.90;;;;;;5032176;28;20045;-81
2022/05/21 10:06:40;;;;;;;8.80;1.95;;;17.00;99.90;;;;;;5029451;28;20089;-81
2022/05/21 10:12:17;;;;;;;10.18;1.70;;;16.80;99.90;;;;;;5021408;28;20136;-81
2022/05/21 10:14:53;;;;;;;7.80;1.52;;;16.80;99.90;;;;;;5056728;28;21116;-79
2022/05/21 10:17:30;;;;;;;8.02;1.33;;;16.90;99.90;;;;;;5027439;28;20459;-87
2022/05/21 10:20:37;;;;;;;6.43;1.30;;;16.90;99.90;;;;;;5025014;28;20046;-80
2022/05/21 10:23:29;;;;;;;11.45;1.65;;;16.90;99.90;;;;;;5018264;28;20045;-82
2022/05/21 10:26:23;;;;;;;7.32;1.40;;;16.80;99.90;;;;;;5003078;28;20111;-82
2022/05/21 10:29:13;;;;;;;10.60;2.13;;;16.80;99.90;;;;;;5010359;28;20824;-82
2022/05/21 10:32:12;;;;;;;6.82;1.35;;;16.80;99.90;;;;;;5018225;28;20065;-81
2022/05/21 10:34:52;;;;;;;10.30;1.48;;;16.90;99.90;;;;;;5016922;28;20057;-79
2022/05/21 10:37:33;;;;;;;7.38;1.27;;;17.00;99.90;;;;;;5025663;28;20041;-80
2022/05/21 10:40:18;;;;;;;6.07;1.40;;;17.00;99.90;;;;;;5024023;28;20046;-82
2022/05/21 10:42:55;;;;;;;5.95;1.38;;;17.00;99.90;;;;;;5039230;28;20384;-81
2022/05/21 10:45:36;;;;;;;10.05;1.77;;;17.00;99.90;;;;;;5028425;28;20133;-81
2022/05/21 10:48:27;;;;;;;7.43;1.02;;;17.00;99.90;;;;;;5014382;28;20053;-82
2022/05/21 10:51:21;;;;;;;10.63;1.63;;;17.10;99.90;;;;;;5025841;28;20054;-82
2022/05/21 10:54:01;;;;;;;13.00;1.90;;;17.20;99.90;;;;;;5039057;28;20073;-82
2022/05/21 10:57:02;;;;;;;13.75;1.90;;;17.10;99.90;;;;;;5031057;28;20141;-81
2022/05/21 10:59:57;;;;;;;11.68;1.63;;;17.00;99.90;;;;;;5027261;28;20053;-81
2022/05/21 11:02:31;;;;;;;9.15;1.60;;;16.90;99.90;;;;;;5033829;28;20516;-81
2022/05/21 11:05:32;;;;;;;8.68;1.85;;;17.20;99.90;;;;;;5028997;28;20487;-81
2022/05/21 11:08:12;;;;;;;8.95;1.80;;;17.50;99.90;;;;;;5028641;28;20048;-81
2022/05/21 11:10:44;;;;;;;8.98;1.85;;;17.90;99.90;;;;;;5032855;28;20042;-82
2022/05/21 11:13:17;;;;;;;8.90;1.73;;;18.20;99.90;;;;;;5031808;28;20071;-77
2022/05/21 11:15:47;;;;;;;7.50;1.30;;;18.50;99.90;;;;;;5029737;28;20080;-75
2022/05/21 11:18:22;;;;;;;10.35;1.67;;;18.80;99.90;;;;;;5022976;28;20049;-75
2022/05/21 11:20:55;;;;;;;;;;;19.00;99.90;;;;;;5027682;28;20056;-79
2022/05/21 11:23:54;;;;;;;7.15;1.40;;;19.20;99.90;;;;;;5024561;28;19925;-77
2022/05/21 11:26:25;;;;;;;7.13;1.52;;;19.40;99.90;;;;;;5024998;28;20071;-76
2022/05/21 11:28:55;;;;;;;5.90;1.00;;;19.40;99.90;;;;;;5029512;28;20058;-77
2022/05/21 11:37:46;;;;;;;8.20;1.33;;;19.00;99.90;;;;;;5024191;28;20348;-76
2022/05/21 11:40:50;;;;;;;7.90;1.20;;;18.70;99.90;;;;;;5026269;28;20049;-77
2022/05/21 11:43:18;;;;;;;6.20;1.00;;;18.70;99.90;;;;;;5025669;28;20152;-78
2022/05/21 11:46:05;;;;;;;6.13;1.00;;;18.70;99.90;;;;;;5030245;28;20068;-78
2022/05/21 11:48:31;;;;;;;7.97;1.15;;;18.80;99.90;;;;;;5025826;28;20042;-77
2022/05/21 11:51:22;;;;;;;6.18;1.30;;;18.70;99.90;;;;;;5027405;28;20045;-77
2022/05/21 11:53:48;;;;;;;8.23;1.35;;;18.70;99.90;;;;;;5024812;28;20135;-78
2022/05/21 11:56:14;;;;;;;9.07;1.23;;;18.70;99.90;;;;;;5025902;28;20087;-78
2022/05/21 11:59:11;;;;;;;7.07;1.10;;;18.80;99.90;;;;;;5026006;28;20578;-78
2022/05/21 12:01:40;;;;;;;7.80;1.00;;;18.80;99.90;;;;;;5021927;28;20049;-74
2022/05/21 12:04:07;;;;;;;7.22;1.15;;;18.90;99.90;;;;;;5023642;28;20208;-80
2022/05/21 12:06:41;;;;;;;6.63;1.10;;;19.00;99.90;;;;;;5021688;28;20060;-81
2022/05/21 12:09:23;;;;;;;8.73;1.23;;;19.20;99.90;;;;;;5030367;28;20120;-82
2022/05/21 12:11:50;;;;;;;7.82;1.65;;;19.40;99.90;;;;;;5010607;28;20304;-81
2022/05/21 12:14:25;;;;;;;8.00;1.17;;;19.60;99.90;;;;;;5022733;28;20511;-81
2022/05/21 12:16:57;;;;;;;8.48;1.38;;;19.60;99.90;;;;;;5031749;28;20046;-82
2022/05/21 12:19:49;;;;;;;7.15;1.17;;;19.50;99.90;;;;;;5031323;28;20049;-81
2022/05/21 12:22:38;;;;;;;6.72;1.00;;;19.60;99.90;;;;;;5017991;28;20128;-81
2022/05/21 12:25:04;;;;;;;7.40;1.35;;;19.60;99.90;;;;;;5023387;28;20049;-81
2022/05/21 12:27:29;;;;;;;4.22;1.13;;;19.50;99.90;;;;;;5030787;28;20705;-81
2022/05/21 12:30:01;;;;;;;8.32;1.88;;;19.50;99.90;;;;;;5020604;28;20049;-81
2022/05/21 12:32:28;;;;;;;6.15;1.30;;;19.40;99.90;;;;;;5023330;28;20041;-82
2022/05/21 12:35:25;;;;;;;9.00;1.20;;;19.30;99.90;;;;;;5019938;28;20743;-82
2022/05/21 12:38:08;;;;;;;4.53;1.27;;;19.20;99.90;;;;;;5028395;28;20079;-82
2022/05/21 12:40:50;;;;;;;5.63;1.50;;;19.10;99.90;;;;;;5011478;28;20132;-81
2022/05/21 12:43:16;;;;;;;9.40;1.40;;;19.20;99.90;;;;;;5024693;28;20052;-81
2022/05/21 12:45:49;;;;;;;7.85;1.75;;;19.20;99.90;;;;;;5027978;28;20052;-81
2022/05/21 12:48:22;;;;;;;7.45;1.73;;;19.10;99.90;;;;;;5031015;28;20148;-82
2022/05/21 12:50:54;;;;;;;7.78;1.67;;;18.90;99.90;;;;;;5025197;28;20053;-81
2022/05/21 12:53:26;;;;;;;11.90;2.03;;;18.90;99.90;;;;;;5020588;28;20038;-82
2022/05/21 12:56:04;;;;;;;9.27;1.60;;;19.00;99.90;;;;;;5045120;28;20057;-82
2022/05/21 12:58:30;;;;;;;7.80;1.35;;;19.30;99.90;;;;;;5019473;28;20060;-81
2022/05/21 13:00:57;;;;;;;8.05;1.40;;;19.50;99.90;;;;;;5019232;28;20037;-81
2022/05/21 13:03:31;;;;;;;5.47;1.08;;;19.60;99.90;;;;;;5024666;28;20493;-82
2022/05/21 13:05:59;;;;;;;7.00;1.30;;;19.50;99.90;;;;;;5019608;28;20046;-82
2022/05/21 13:08:27;;;;;;;5.68;1.15;;;19.40;99.90;;;;;;5012063;28;20096;-82
2022/05/21 13:11:03;;;;;;;6.95;1.17;;;19.40;99.90;;;;;;5009462;28;20045;-81
2022/05/21 13:13:34;;;;;;;7.18;1.23;;;19.30;99.90;;;;;;5023017;28;20126;-81
2022/05/21 13:16:02;;;;;;;8.07;1.40;;;19.20;99.90;;;;;;5029926;28;20870;-81
2022/05/21 13:18:35;;;;;;;7.60;1.23;;;19.10;99.90;;;;;;5062242;28;20489;-82
2022/05/21 13:21:26;;;;;;;6.70;1.40;;;18.90;99.90;;;;;;5029044;28;20095;-81